Flight Track Log - Related Links

Times and Time Zones

All times are in EDT time to prevent confusion due to time zone crossing. See the N747NA flight status page for this flight to view local times or setup timezone preferences in your user account.

Time Position Orientation Groundspeed Altitude Reporting Facility
EDT Latitude Longitude Course Direction KTS MPH feet Rate Location/Type
Thu 10:50:11 PM 34.6722 -118.0906 47° Northeast 251 289 4,900  Level Los Center
Thu 10:51:14 PM 34.6800 -117.9983 84° East 266 306 6,900 1,584 Climbing Los Center
Thu 10:52:16 PM 34.6917 -117.9008 82° East 278 320 8,200 1,452 Climbing Los Center
Thu 10:53:18 PM 34.7053 -117.7931 81° East 309 356 9,900 1,548 Climbing Los Center
Thu 10:54:00 PM 34.6294 -118.0845 80° East  Level Estimated
Thu 10:54:20 PM 34.7231 -117.6556 81° East 340 391 11,400  Level Los Center
Thu 10:55:00 PM 34.6294 -118.0845 47° Northeast  Level Estimated
Thu 10:55:22 PM 34.7406 -117.5294 80° East 378 435 12,800  Level Los Center
Thu 10:56:24 PM 34.7719 -117.3978 74° East 405 466 13,900 1,500 Climbing Los Center
Thu 10:57:26 PM 34.8039 -117.2622 74° East 418 481 15,900 1,920 Climbing Los Center
Thu 10:58:29 PM 34.8353 -117.1258 74° East 421 484 17,900 2,016 Climbing Los Center
Thu 10:59:31 PM 34.8717 -116.9639 75° East 417 480 20,100 1,694 Climbing Los Center
Thu 11:00:33 PM 34.9033 -116.8272 74° East 419 482 21,400 1,113 Climbing Los Center
Thu 11:01:35 PM 34.9367 -116.6869 74° East 427 491 22,400 1,113 Climbing Los Center
Thu 11:02:37 PM 34.9903 -116.5514 64° Northeast 436 502 23,700 1,248 Climbing Los Center
Thu 11:03:40 PM 35.0772 -116.4011 55° Northeast 445 512 25,000 1,152 Climbing Los Center
Thu 11:04:42 PM 35.1606 -116.2814 50° Northeast 453 521 26,100 1,182 Climbing Los Center
Thu 11:05:57 PM 35.2611 -116.1328 50° Northeast 469 540 27,700 1,358 Climbing Los Center
Thu 11:06:59 PM 35.3456 -116.0092 50° Northeast 473 544 29,200 1,113 Climbing Los Center
Thu 11:08:01 PM 35.4292 -115.8808 51° Northeast 481 554 30,000 823 Climbing Los Center
Thu 11:09:03 PM 35.5300 -115.7350 50° Northeast 496 571 30,900 768 Climbing Los Center
Thu 11:10:06 PM 35.6183 -115.6028 51° Northeast 501 577 31,600 672 Climbing Los Center
Thu 11:11:08 PM 35.7081 -115.4678 51° Northeast 505 581 32,300 871 Climbing Los Center
Thu 11:12:10 PM 35.8186 -115.2997 51° Northeast 522 601 33,400 968 Climbing Los Center
Thu 11:13:12 PM 35.9083 -115.1606 51° Northeast 524 603 34,300 774 Climbing Los Center
Thu 11:14:14 PM 36.0000 -115.0211 51° Northeast 526 605 35,000 774 Climbing Los Center
Thu 11:15:16 PM 36.0883 -114.8831 52° Northeast 520 598 35,900 581 Climbing Los Center
Thu 11:16:18 PM 36.1719 -114.7436 53° Northeast 512 589 36,200 242 Climbing Los Center
Thu 11:17:20 PM 36.2861 -114.5897 47° Northeast 515 593 36,400 336 Climbing Los Center
Thu 11:18:23 PM 36.4114 -114.5092 27° Northeast 514 592 36,900 432 Climbing Los Center
Thu 11:19:25 PM 36.5336 -114.4222 30° Northeast 509 586 37,300 387 Climbing Los Center
Thu 11:20:27 PM 36.6544 -114.3314 31° Northeast 509 586 37,700 290 Climbing Los Center
Thu 11:21:29 PM 36.7792 -114.2475 28° Northeast 511 588 37,900 145 Climbing Los Center
Thu 11:22:31 PM 36.9292 -114.1456 29° Northeast 511 588 38,000  Climbing Los Center
Thu 11:23:33 PM 37.0281 -114.0758 29° Northeast 511 588 37,900 -44 Descending Los Center
Thu 11:24:48 PM 37.1794 -113.9706 29° Northeast 517 595 37,900  Level Los Center
Thu 11:25:50 PM 37.3392 -113.8597 29° Northeast 517 595 37,900  Level Los Center
Thu 11:26:52 PM 37.4647 -113.7725 29° Northeast 515 593 37,900  Level Los Center
Thu 11:27:54 PM 37.5892 -113.6847 29° Northeast 512 589 37,900  Level Los Center
Thu 11:28:56 PM 37.7125 -113.5964 30° Northeast 508 585 37,900  Level Los Center
Thu 11:29:58 PM 37.8347 -113.5069 30° Northeast 505 581 37,900 -145 Level Los Center
Thu 11:31:00 PM 37.9819 -113.4003 30° Northeast 504 580 37,600 -432 Descending Los Center
Thu 11:32:03 PM 38.1056 -113.3106 30° Northeast 507 583 37,000 -240 Descending Los Center
Thu 11:33:05 PM 38.2292 -113.2225 29° Northeast 507 583 37,100 48 Climbing Los Center
Thu 11:34:09 PM 38.3525 -113.1336 29° Northeast 506 582 37,100 -48 Level Salt Center
Thu 11:35:10 PM 38.4778 -113.0428 30° Northeast 513 590 37,000 -49 Descending Salt Center
Thu 11:36:12 PM 38.6019 -112.9531 29° Northeast 513 590 37,000  Level Salt Center
Thu 11:37:13 PM 38.7281 -112.8636 29° Northeast 516 594 37,000 49 Level Salt Center
Thu 11:38:15 PM 38.8792 -112.7550 29° Northeast 518 596 37,100 48 Climbing Salt Center
Thu 11:39:17 PM 39.0056 -112.6642 29° Northeast 521 600 37,100 -49 Level Salt Center
Thu 11:40:18 PM 39.1331 -112.5733 29° Northeast 523 602 37,000 -49 Descending Salt Center
Thu 11:41:19 PM 39.2689 -112.4733 30° Northeast 519 597 37,000  Level Salt Center
Thu 11:42:21 PM 39.3950 -112.3836 29° Northeast 518 596 37,000 49 Level Salt Center
Thu 11:43:22 PM 39.5206 -112.2947 29° Northeast 518 596 37,100 49 Climbing Salt Center
Thu 11:44:24 PM 39.6475 -112.2033 29° Northeast 521 600 37,100  Level Salt Center
Thu 11:45:25 PM 39.7750 -112.1119 29° Northeast 525 604 37,100 49 Level Salt Center
Thu 11:46:26 PM 39.9053 -112.0197 28° Northeast 532 612 37,200 195 Climbing Salt Center
Thu 11:47:28 PM 40.0381 -111.9325 27° Northeast 535 616 37,500 439 Climbing Salt Center
Thu 11:48:29 PM 40.1750 -111.8661 20° North 527 606 38,100 439 Climbing Salt Center
Thu 11:49:31 PM 40.3433 -111.8003 17° North 525 604 38,400 242 Climbing Salt Center
Thu 11:50:33 PM 40.4817 -111.7458 17° North 523 602 38,600 195 Climbing Salt Center
Thu 11:51:34 PM 40.6197 -111.6919 17° North 520 598 38,800 197 Climbing Salt Center
Thu 11:52:35 PM 40.7594 -111.6375 16° North 524 603 39,000 98 Climbing Salt Center
Thu 11:53:36 PM 40.8975 -111.5825 17° North 526 605 39,000 -49 Level Salt Center
Thu 11:54:38 PM 41.0344 -111.5258 17° North 526 605 38,900  Descending Salt Center
Thu 11:55:39 PM 41.1989 -111.4575 17° North 525 604 39,000 49 Climbing Salt Center
Thu 11:56:40 PM 41.3367 -111.3983 18° North 524 603 39,000 -49 Level Salt Center
Thu 11:57:42 PM 41.4747 -111.3394 18° North 522 601 38,900 -49 Descending Salt Center
Thu 11:58:43 PM 41.6119 -111.2822 17° North 519 597 38,900  Level Salt Center
Thu 11:59:44 PM 41.7500 -111.2228 18° North 521 600 38,900  Level Salt Center
Fri 12:00:46 AM 41.8875 -111.1631 18° North 521 600 38,900 49 Level Salt Center
Fri 12:01:47 AM 42.0250 -111.1050 17° North 519 597 39,000  Climbing Salt Center
Fri 12:02:48 AM 42.1628 -111.0478 17° North 519 597 38,900  Descending Salt Center
Fri 12:03:50 AM 42.3283 -110.9781 17° North 520 598 39,000 49 Climbing Salt Center
Fri 12:04:51 AM 42.4614 -110.9214 17° North 523 602 39,000  Level Salt Center
Fri 12:05:52 AM 42.5967 -110.8642 17° North 529 609 39,000 -49 Level Salt Center
Fri 12:06:54 AM 42.7592 -110.7950 17° North 532 612 38,900  Descending Salt Center
Fri 12:07:55 AM 42.8947 -110.7394 17° North 533 613 39,000 49 Climbing Salt Center
Fri 12:08:56 AM 43.0306 -110.6853 16° North 532 612 39,000 -49 Level Salt Center
Fri 12:09:57 AM 43.1892 -110.6119 19° North 542 624 38,900 -49 Descending Salt Center
Fri 12:10:59 AM 43.2969 -110.4803 42° Northeast 559 643 38,900  Level Salt Center
Fri 12:12:00 AM 43.3272 -110.2553 79° East 546 628 38,900 49 Level Salt Center
Fri 12:13:01 AM 43.2497 -110.1056 125° Southeast 507 583 39,000 49 Climbing Salt Center
Fri 12:14:03 AM 43.1367 -110.0133 149° Southeast 488 562 39,000 -49 Level Salt Center
Fri 12:15:04 AM 43.0061 -109.9017 148° Southeast 494 568 38,900  Descending Salt Center
Fri 12:16:05 AM 42.8950 -109.8086 148° Southeast 497 572 39,000 49 Climbing Salt Center
Fri 12:17:07 AM 42.7631 -109.6961 148° Southeast 500 575 39,000 -49 Level Salt Center
Fri 12:18:08 AM 42.6475 -109.6036 150° Southeast 502 578 38,900 -49 Descending Salt Center
Fri 12:19:09 AM 42.5333 -109.5064 148° Southeast 504 580 38,900 49 Level Salt Center
Fri 12:20:10 AM 42.4003 -109.3939 148° Southeast 505 581 39,000  Climbing Salt Center
Fri 12:21:12 AM 42.2872 -109.2969 148° Southeast 504 580 38,900 -49 Descending Salt Center
Fri 12:22:13 AM 42.1747 -109.2047 149° Southeast 497 572 38,900  Level Salt Center
Fri 12:23:14 AM 42.0428 -109.1033 150° Southeast 491 565 38,900  Level Salt Center
Fri 12:24:15 AM 41.9303 -109.0189 151° Southeast 486 559 38,900  Level Salt Center
Fri 12:25:17 AM 41.8019 -108.9253 151° Southeast 473 544 38,900  Level Salt Center
Fri 12:26:18 AM 41.6922 -108.8428 151° Southeast 469 540 38,900 49 Level Salt Center
Fri 12:27:19 AM 41.5808 -108.7581 150° Southeast 475 547 39,000 49 Climbing Salt Center
Fri 12:28:21 AM 41.4492 -108.6583 150° Southeast 482 555 39,000  Level Salt Center
Fri 12:29:22 AM 41.3342 -108.5764 152° Southeast 485 558 39,000  Level Salt Center
Fri 12:30:23 AM 41.2192 -108.4900 151° Southeast 492 566 39,000 -56 Level Salt Center
Fri 12:31:10 AM 41.1233 -108.4178 150° Southeast 493 567 38,900 -56 Descending Denver Center
Fri 12:32:11 AM 40.9903 -108.3161 150° Southeast 494 568 38,900  Level Denver Center
Fri 12:33:12 AM 40.8761 -108.2306 150° Southeast 492 566 38,900  Level Denver Center
Fri 12:34:14 AM 40.7617 -108.1467 151° Southeast 490 564 38,900 49 Level Denver Center
Fri 12:35:15 AM 40.6375 -108.0564 151° Southeast 493 567 39,000 49 Climbing Denver Center
Fri 12:36:16 AM 40.5033 -107.9592 151° Southeast 491 565 39,000 -49 Level Denver Center
Fri 12:37:18 AM 40.3908 -107.8800 152° Southeast 481 554 38,900  Descending Denver Center
Fri 12:38:19 AM 40.2792 -107.8006 152° Southeast 476 548 39,000 49 Climbing Denver Center
Fri 12:39:20 AM 40.1489 -107.7089 152° Southeast 474 545 39,000  Level Denver Center
Fri 12:40:22 AM 40.0336 -107.6303 152° Southeast 482 555 39,000  Level Denver Center
Fri 12:41:23 AM 39.9200 -107.5542 153° Southeast 479 551 39,000 -45 Level Denver Center
Fri 12:42:36 AM 39.7864 -107.4675 154° Southeast 478 550 38,900  Descending Denver Center
Fri 12:43:38 AM 39.6514 -107.3814 154° Southeast 478 550 39,000 49 Climbing Denver Center
Fri 12:44:39 AM 39.5183 -107.2942 153° Southeast 478 550 39,000 -49 Level Denver Center
Fri 12:45:40 AM 39.4022 -107.2203 154° Southeast 482 555 38,900 -49 Descending Denver Center
Fri 12:46:41 AM 39.2703 -107.1361 154° Southeast 474 545 38,900 49 Level Denver Center
Fri 12:47:42 AM 39.1581 -107.0664 154° Southeast 466 536 39,000  Climbing Denver Center
Fri 12:48:44 AM 39.0469 -106.9972 154° Southeast 464 534 38,900  Descending Denver Center
Fri 12:49:45 AM 38.9167 -106.9175 155° Southeast 463 533 39,000 49 Climbing Denver Center
Fri 12:50:46 AM 38.8175 -106.8581 155° Southeast 470 541 39,000  Level Denver Center
Fri 12:51:47 AM 38.6747 -106.7736 155° Southeast 474 545 39,000  Level Denver Center
Fri 12:52:48 AM 38.5553 -106.6997 154° Southeast 474 545 39,000 -49 Level Denver Center
Fri 12:53:49 AM 38.4339 -106.6283 155° Southeast 481 554 38,900  Descending Denver Center
Fri 12:54:50 AM 38.3050 -106.5497 154° Southeast 479 551 39,000  Climbing Denver Center
Fri 12:55:52 AM 38.1933 -106.4781 153° Southeast 482 555 38,900 -49 Descending Denver Center
Fri 12:56:53 AM 38.0658 -106.3964 153° Southeast 471 542 38,900 49 Level Denver Center
Fri 12:57:54 AM 37.9564 -106.3233 152° Southeast 466 536 39,000  Climbing Denver Center
Fri 12:58:55 AM 37.8461 -106.2517 153° Southeast 466 536 38,900 -49 Descending Denver Center
Fri 12:59:56 AM 37.7181 -106.1689 153° Southeast 464 534 38,900 49 Level Denver Center
Fri 01:00:57 AM 37.6069 -106.0986 153° Southeast 466 536 39,000 49 Climbing Denver Center
Fri 01:01:58 AM 37.4831 -106.0231 154° Southeast 470 541 39,000  Level Denver Center
Fri 01:02:59 AM 37.3686 -105.9544 155° Southeast 471 542 39,000  Level Denver Center
Fri 01:04:00 AM 37.2367 -105.8744 154° Southeast 471 542 39,000  Level Denver Center
Fri 01:05:01 AM 37.1531 -105.8250 155° Southeast 472 543 39,000 -49 Level Denver Center
Fri 01:06:02 AM 36.9978 -105.7322 154° Southeast 479 551 38,900  Descending Denver Center
Fri 01:07:03 AM 36.8828 -105.6631 154° Southeast 481 554 39,000  Climbing Denver Center
Fri 01:08:03 AM 36.7489 -105.5831 154° Southeast 479 551 38,900  Descending Denver Center
Fri 01:09:04 AM 36.6344 -105.5167 155° Southeast 476 548 39,000 49 Climbing Denver Center
Fri 01:10:05 AM 36.5194 -105.4478 154° Southeast 478 550 39,000  Level Denver Center
Fri 01:11:06 AM 36.4006 -105.3794 155° Southeast 476 548 39,000 -42 Level Denver Center
Fri 01:12:28 AM 36.2219 -105.2750 155° Southeast 478 550 38,900 -42 Descending Albuquerque Center
Fri 01:13:29 AM 36.1025 -105.2028 154° Southeast 475 547 38,900 49 Level Albuquerque Center
Fri 01:14:30 AM 35.9808 -105.1344 156° South 475 547 39,000  Climbing Albuquerque Center
Fri 01:15:31 AM 35.8572 -105.0758 159° South 471 542 38,900 -49 Descending Albuquerque Center
Fri 01:16:32 AM 35.7347 -105.0183 159° South 469 540 38,900  Level Albuquerque Center
Fri 01:17:32 AM 35.6164 -104.9600 158° South 461 531 38,900 50 Level Albuquerque Center
Fri 01:18:33 AM 35.5008 -104.8908 154° Southeast 460 529 39,000 49 Climbing Albuquerque Center
Fri 01:19:34 AM 35.3878 -104.8217 153° Southeast 454 522 39,000  Level Albuquerque Center
Fri 01:20:35 AM 35.2733 -104.7575 155° Southeast 452 520 39,000  Level Albuquerque Center
Fri 01:21:36 AM 35.1567 -104.6947 156° South 455 524 39,000 -49 Level Albuquerque Center
Fri 01:22:37 AM 35.0419 -104.6328 156° South 453 521 38,900  Descending Albuquerque Center
Fri 01:23:37 AM 34.9306 -104.5719 156° South 443 510 39,000 50 Climbing Albuquerque Center
Fri 01:24:38 AM 34.8236 -104.5033 152° Southeast 435 501 39,000  Level Albuquerque Center
Fri 01:25:39 AM 34.7158 -104.4361 153° Southeast 433 498 39,000 -49 Level Albuquerque Center
Fri 01:26:40 AM 34.6058 -104.3658 152° Southeast 440 506 38,900 -49 Descending Albuquerque Center
Fri 01:27:41 AM 34.4922 -104.3208 162° South 433 498 38,900  Level Albuquerque Center
Fri 01:28:41 AM 34.4006 -104.3983 215° Southwest 416 479 38,900 50 Level Albuquerque Center
Fri 01:29:42 AM 34.3439 -104.5253 242° Southwest 423 487 39,000 49 Climbing Albuquerque Center
Fri 01:30:43 AM 34.2936 -104.6511 244° Southwest 416 479 39,000 -49 Level Albuquerque Center
Fri 01:31:44 AM 34.3361 -104.7983 289° West 457 526 38,900 -50 Descending Albuquerque Center
Fri 01:32:44 AM 34.4689 -104.8656 337° Northwest 508 585 38,900 50 Level Albuquerque Center
Fri 01:33:45 AM 34.6167 -104.8242 13° North 535 616 39,000 49 Climbing Albuquerque Center
Fri 01:34:46 AM 34.7689 -104.7992 North 550 633 39,000  Level Albuquerque Center
Fri 01:35:47 AM 34.9228 -104.8111 356° North 548 631 39,000  Level Albuquerque Center
Fri 01:36:47 AM 35.0756 -104.8392 351° North 546 628 39,000 -50 Level Albuquerque Center
Fri 01:37:48 AM 35.2250 -104.8678 351° North 540 621 38,900  Descending Albuquerque Center
Fri 01:38:49 AM 35.3708 -104.8936 352° North 528 608 39,000 49 Climbing Albuquerque Center
Fri 01:39:50 AM 35.5158 -104.9181 352° North 520 598 39,000  Level Albuquerque Center
Fri 01:40:50 AM 35.6600 -104.9419 352° North 517 595 39,000  Level Albuquerque Center
Fri 01:41:51 AM 35.8028 -104.9689 351° North 515 593 39,000  Level Albuquerque Center
Fri 01:42:52 AM 35.9500 -104.9942 352° North 521 600 39,000  Level Albuquerque Center
Fri 01:43:52 AM 36.0964 -105.0231 351° North 525 604 39,000  Level Albuquerque Center
Fri 01:44:53 AM 36.2425 -105.0539 350° North 526 605 39,000  Level Albuquerque Center
Fri 01:45:54 AM 36.3878 -105.0847 350° North 525 604 39,000  Level Albuquerque Center
Fri 01:46:55 AM 36.5308 -105.1172 350° North 519 597 39,000  Level Albuquerque Center
Fri 01:47:55 AM 36.6719 -105.1503 349° North 512 589 39,000  Level Albuquerque Center
Fri 01:48:56 AM 36.8125 -105.1839 349° North 511 588 39,000 -56 Level Albuquerque Center
Fri 01:49:42 AM 36.9250 -105.2136 348° North 510 587 38,900  Descending Denver Center
Fri 01:50:43 AM 37.0814 -105.2522 349° North 509 586 39,000 50 Climbing Denver Center
Fri 01:51:43 AM 37.2169 -105.2836 350° North 513 590 39,000  Level Denver Center
Fri 01:52:44 AM 37.3603 -105.3172 349° North 503 579 39,000  Level Denver Center
Fri 01:53:44 AM 37.4933 -105.3489 349° North 507 583 39,000  Level Denver Center
Fri 01:54:45 AM 37.6364 -105.3831 349° North 505 581 39,000  Level Denver Center
Fri 01:55:45 AM 37.7689 -105.4139 350° North 503 579 39,000  Level Denver Center
Fri 01:56:46 AM 37.8969 -105.4472 348° North 493 567 39,000 -50 Level Denver Center
Fri 01:57:46 AM 38.0469 -105.4839 349° North 490 564 38,900  Descending Denver Center
Fri 01:58:47 AM 38.1756 -105.5153 349° North 490 564 39,000 50 Climbing Denver Center
Fri 01:59:47 AM 38.3014 -105.5467 349° North 482 555 39,000  Level Denver Center
Fri 02:00:48 AM 38.4383 -105.5800 349° North 484 557 39,000  Level Denver Center
Fri 02:01:48 AM 38.5708 -105.6131 349° North 484 557 39,000  Level Denver Center
Fri 02:02:49 AM 38.7044 -105.6458 349° North 488 562 39,000  Level Denver Center
Fri 02:03:50 AM 38.8411 -105.6800 349° North 495 570 39,000  Level Denver Center
Fri 02:04:50 AM 38.9783 -105.7133 349° North 500 575 39,000  Level Denver Center
Fri 02:05:51 AM 39.1169 -105.7447 350° North 504 580 39,000  Level Denver Center
Fri 02:06:51 AM 39.2567 -105.7800 349° North 507 583 39,000  Level Denver Center
Fri 02:07:52 AM 39.3972 -105.8142 349° North 511 588 39,000  Level Denver Center
Fri 02:08:52 AM 39.5389 -105.8442 351° North 513 590 39,000  Level Denver Center
Fri 02:09:53 AM 39.6792 -105.8731 351° North 510 587 39,000  Level Denver Center
Fri 02:10:53 AM 39.8192 -105.9022 351° North 509 586 39,000  Level Denver Center
Fri 02:11:54 AM 39.9583 -105.9297 351° North 506 582 39,000 198 Level Denver Center
Fri 02:12:54 AM 40.0953 -105.9578 351° North 499 574 39,400 347 Climbing Denver Center
Fri 02:13:55 AM 40.2333 -105.9875 351° North 501 577 39,700 397 Climbing Denver Center
Fri 02:14:55 AM 40.3731 -106.0181 351° North 509 586 40,200 347 Climbing Denver Center
Fri 02:15:56 AM 40.5136 -106.0478 351° North 511 588 40,400 198 Climbing Denver Center
Fri 02:16:56 AM 40.6564 -106.0750 352° North 516 594 40,600 298 Climbing Denver Center
Fri 02:17:57 AM 40.7975 -106.1039 351° North 514 592 41,000 197 Climbing Denver Center
Fri 02:18:58 AM 40.9397 -106.1306 352° North 516 594 41,000  Level Denver Center
Fri 02:19:58 AM 41.0753 -106.1539 353° North 514 592 41,000  Level Denver Center
Fri 02:20:59 AM 41.2414 -106.1842 352° North 506 582 41,000  Level Denver Center
Fri 02:21:59 AM 41.3717 -106.2058 353° North 507 583 41,000  Level Denver Center
Fri 02:23:00 AM 41.5292 -106.2331 353° North 510 587 41,000  Level Denver Center
Fri 02:24:00 AM 41.6628 -106.2542 353° North 508 585 41,000  Level Denver Center
Fri 02:25:01 AM 41.7983 -106.2764 353° North 511 588 41,000  Level Denver Center
Fri 02:26:02 AM 41.9583 -106.3036 353° North 516 594 41,000  Level Denver Center
Fri 02:27:02 AM 42.0933 -106.3242 354° North 512 589 41,000  Level Denver Center
Fri 02:28:03 AM 42.2300 -106.3467 353° North 515 593 41,000  Level Denver Center
Fri 02:29:03 AM 42.3669 -106.3669 354° North 515 593 41,000  Level Denver Center
Fri 02:30:04 AM 42.5244 -106.3931 353° North 511 588 41,000  Level Denver Center
Fri 02:31:28 AM 42.6792 -106.4208 352° North 504 580 41,000  Level Denver Center
Fri 02:32:29 AM 42.8578 -106.4542 352° North 505 581 41,000  Level Denver Center
Fri 02:33:29 AM 42.9889 -106.4825 351° North 502 578 41,000  Level Denver Center
Fri 02:34:30 AM 43.1197 -106.5114 351° North 500 575 41,000  Level Denver Center
Fri 02:35:30 AM 43.2300 -106.5367 351° North 500 575 41,000  Level Denver Center
Fri 02:36:31 AM 43.3650 -106.6783 323° Northwest 492 566 41,000  Level Denver Center
Fri 02:37:31 AM 43.3739 -106.8439 274° West 460 529 41,000  Level Denver Center
Fri 02:38:05 AM 43.3489 -106.9511 252° West 453 521 41,000  Level Salt Center
Fri 02:39:06 AM 43.3058 -107.1053 249° West 452 520 41,000  Level Salt Center
Fri 02:40:06 AM 43.2489 -107.2825 246° West 452 520 41,000  Level Salt Center
Fri 02:41:07 AM 43.1975 -107.4350 245° Southwest 455 524 41,000  Level Salt Center
Fri 02:43:08 AM 43.0958 -107.7611 247° West 450 518 41,000  Level Salt Center
Fri 02:44:08 AM 43.0519 -107.9092 248° West 446 513 41,000  Level Salt Center
Fri 02:45:09 AM 43.0122 -108.0567 250° West 439 505 41,000  Level Salt Center
Fri 02:46:09 AM 42.9681 -108.2258 250° West 431 496 41,000  Level Salt Center
Fri 02:47:10 AM 42.9325 -108.3717 252° West 425 489 41,000  Level Salt Center
Fri 02:48:10 AM 42.8975 -108.5175 252° West 423 487 41,000  Level Salt Center
Fri 02:49:11 AM 42.8594 -108.6606 250° West 422 486 41,000  Level Salt Center
Fri 02:50:11 AM 42.8183 -108.8294 252° West 422 486 41,000  Level Salt Center
Fri 02:51:12 AM 42.7831 -108.9728 252° West 419 482 41,000  Level Salt Center
Fri 02:52:12 AM 42.7442 -109.1158 250° West 422 486 41,000  Level Salt Center
Fri 02:53:13 AM 42.6950 -109.2797 248° West 421 484 41,000  Level Salt Center
Fri 02:54:13 AM 42.6564 -109.4269 250° West 428 493 41,000  Level Salt Center
Fri 02:55:14 AM 42.6161 -109.5736 250° West 433 498 41,000  Level Salt Center
Fri 02:56:14 AM 42.5697 -109.7475 250° West 438 504 41,000  Level Salt Center
Fri 02:57:15 AM 42.5294 -109.8989 250° West 444 511 41,000  Level Salt Center
Fri 02:58:15 AM 42.4883 -110.0503 250° West 448 516 41,000  Level Salt Center
Fri 02:59:16 AM 42.4381 -110.2278 249° West 453 521 41,000  Level Salt Center
Fri 03:00:16 AM 42.3956 -110.3800 249° West 453 521 41,000  Level Salt Center
Fri 03:01:17 AM 42.3533 -110.5344 250° West 456 525 41,000  Level Salt Center
Fri 03:02:17 AM 42.3067 -110.7119 250° West 453 521 41,000  Level Salt Center
Fri 03:03:18 AM 42.2681 -110.8628 251° West 448 516 41,000  Level Salt Center
Fri 03:04:18 AM 42.2286 -111.0208 251° West 445 512 41,000  Level Salt Center
Fri 03:05:19 AM 42.1903 -111.1778 252° West 443 510 41,000  Level Salt Center
Fri 03:06:20 AM 42.1522 -111.3331 252° West 440 506 41,000  Level Salt Center
Fri 03:07:20 AM 42.1133 -111.4908 252° West 444 511 41,000  Level Salt Center
Fri 03:08:21 AM 42.0753 -111.6469 252° West 443 510 41,000  Level Salt Center
Fri 03:09:21 AM 42.0367 -111.8044 252° West 445 512 41,000  Level Salt Center
Fri 03:10:22 AM 41.9986 -111.9633 252° West 448 516 41,000  Level Salt Center
Fri 03:11:22 AM 41.9608 -112.1211 252° West 448 516 41,000  Level Salt Center
Fri 03:12:23 AM 41.9228 -112.2783 252° West 447 514 41,000  Level Salt Center
Fri 03:13:23 AM 41.8842 -112.4367 252° West 449 517 41,000  Level Salt Center
Fri 03:14:24 AM 41.8372 -112.6281 252° West 452 520 41,000  Level Salt Center
Fri 03:15:24 AM 41.7997 -112.7856 252° West 448 516 41,000  Level Salt Center
Fri 03:16:25 AM 41.7622 -112.9444 252° West 449 517 41,000  Level Salt Center
Fri 03:17:25 AM 41.7219 -113.1036 251° West 452 520 41,000  Level Salt Center
Fri 03:18:26 AM 41.6836 -113.2633 252° West 454 522 41,000  Level Salt Center
Fri 03:19:26 AM 41.6444 -113.4222 252° West 452 520 41,000  Level Salt Center
Fri 03:20:27 AM 41.6050 -113.5800 252° West 451 519 41,000  Level Salt Center
Fri 03:21:27 AM 41.5625 -113.7386 250° West 455 524 41,000  Level Salt Center
Fri 03:22:28 AM 41.5219 -113.8983 251° West 455 524 41,000  Level Salt Center
Fri 03:23:28 AM 41.4800 -114.0569 251° West 455 524 41,000  Level Salt Center
Fri 03:24:29 AM 41.4403 -114.2169 252° West 456 525 41,000  Level Salt Center
Fri 03:25:29 AM 41.3972 -114.3764 250° West 458 527 41,000  Level Salt Center
Fri 03:26:30 AM 41.3564 -114.5375 251° West 462 532 41,000  Level Salt Center
Fri 03:27:30 AM 41.3178 -114.7019 253° West 465 535 41,000  Level Salt Center
Fri 03:28:30 AM 41.2725 -114.8819 252° West 469 540 41,000  Level Salt Center
Fri 03:29:31 AM 41.2322 -115.0389 251° West 469 540 41,000  Level Salt Center
Fri 03:30:32 AM 41.1919 -115.1950 251° West 466 536 41,000  Level Salt Center
Fri 03:31:32 AM 41.1447 -115.3767 251° West 467 537 41,000  Level Salt Center
Fri 03:32:32 AM 41.1047 -115.5336 251° West 468 539 41,000  Level Salt Center
Fri 03:33:33 AM 41.0669 -115.6903 252° West 468 539 41,000  Level Salt Center
Fri 03:34:33 AM 41.0219 -115.8733 252° West 467 537 41,000  Level Salt Center
Fri 03:35:34 AM 40.9833 -116.0278 252° West 463 533 41,000  Level Salt Center
Fri 03:36:34 AM 40.9425 -116.1817 251° West 464 534 41,000  Level Salt Center
Fri 03:37:35 AM 40.8964 -116.3619 251° West 464 534 41,000  Level Salt Center
Fri 03:38:35 AM 40.8547 -116.5133 250° West 461 531 41,000  Level Salt Center
Fri 03:39:36 AM 40.8144 -116.6656 251° West 461 531 41,000  Level Salt Center
Fri 03:40:36 AM 40.7681 -116.8417 251° West 459 528 41,000  Level Salt Center
Fri 03:41:37 AM 40.7267 -116.9925 250° West 460 529 41,000  Level Salt Center
Fri 03:42:37 AM 40.6878 -117.1456 252° West 462 532 41,000  Level Salt Center
Fri 03:43:38 AM 40.6439 -117.3250 252° West 464 534 41,000  Level Salt Center
Fri 03:44:38 AM 40.6072 -117.4803 253° West 465 535 41,000  Level Salt Center
Fri 03:45:39 AM 40.5694 -117.6342 252° West 465 535 41,000  Level Salt Center
Fri 03:46:39 AM 40.5261 -117.8153 253° West 465 535 41,000  Level Salt Center
Fri 03:47:11 AM 40.5100 -117.8928 255° West 464 534 41,000  Level Oakland Center
Fri 03:48:12 AM 40.4717 -118.0558 253° West 467 537 41,000  Level Oakland Center
Fri 03:49:12 AM 40.4322 -118.2161 252° West 466 536 41,000  Level Oakland Center
Fri 03:50:12 AM 40.3942 -118.3781 253° West 466 536 41,000  Level Oakland Center
Fri 03:51:12 AM 40.3553 -118.5383 252° West 463 533 41,000  Level Oakland Center
Fri 03:52:12 AM 40.3181 -118.6986 253° West 462 532 41,000  Level Oakland Center
Fri 03:52:42 AM 40.2983 -118.7697 250° West 463 533 41,000  Level Salt Center
Fri 03:53:43 AM 40.2553 -118.9536 253° West 464 534 41,000  Level Salt Center
Fri 03:54:13 AM 40.2400 -119.0194 253° West 464 534 41,000  Level Oakland Center
Fri 03:55:13 AM 40.2036 -119.1806 254° West 464 534 41,000  Level Oakland Center
Fri 03:56:13 AM 40.1681 -119.3408 254° West 462 532 41,000  Level Oakland Center
Fri 03:57:13 AM 40.1319 -119.4994 253° West 458 527 41,000  Level Oakland Center
Fri 03:58:13 AM 40.0958 -119.6581 253° West 457 526 41,000  Level Oakland Center
Fri 03:59:14 AM 40.0603 -119.8164 254° West 456 525 41,000  Level Oakland Center
Fri 04:00:14 AM 40.0250 -119.9744 254° West 455 524 41,000  Level Oakland Center
Fri 04:01:14 AM 39.9886 -120.1358 254° West 452 520 41,000  Level Oakland Center
Fri 04:02:14 AM 39.9536 -120.2939 254° West 454 522 41,000  Level Oakland Center
Fri 04:03:14 AM 39.9189 -120.4511 254° West 453 521 41,000  Level Oakland Center
Fri 04:04:14 AM 39.8825 -120.6094 253° West 457 526 41,000  Level Oakland Center
Fri 04:05:14 AM 39.8481 -120.7683 254° West 458 527 41,000  Level Oakland Center
Fri 04:06:15 AM 39.8125 -120.9264 254° West 456 525 41,000  Level Oakland Center
Fri 04:07:15 AM 39.7781 -121.0856 254° West 459 528 41,000  Level Oakland Center
Fri 04:08:15 AM 39.7458 -121.2381 255° West 459 528 41,000  Level Oakland Center
Fri 04:09:15 AM 39.7122 -121.3994 255° West 461 531 41,000  Level Oakland Center
Fri 04:10:15 AM 39.6781 -121.5581 254° West 458 527 41,000  Level Oakland Center
Fri 04:11:15 AM 39.6456 -121.7167 255° West 455 524 41,000  Level Oakland Center
Fri 04:12:15 AM 39.6150 -121.8764 256° West 454 522 41,000  Level Oakland Center
Fri 04:13:16 AM 39.5844 -122.0358 256° West 455 524 41,000  Level Oakland Center
Fri 04:14:16 AM 39.5550 -122.1944 257° West 452 520 41,000  Level Oakland Center
Fri 04:15:16 AM 39.5244 -122.3556 256° West 456 525 41,000  Level Oakland Center
Fri 04:16:16 AM 39.4950 -122.5175 257° West 459 528 41,000  Level Oakland Center
Fri 04:17:16 AM 39.4650 -122.6761 256° West 455 524 41,000  Level Oakland Center
Fri 04:18:16 AM 39.4325 -122.8367 255° West 458 527 41,000  Level Oakland Center
Fri 04:19:16 AM 39.4047 -122.9939 257° West 452 520 41,000  Level Oakland Center
Fri 04:20:17 AM 39.3733 -123.1536 256° West 456 525 41,000  Level Oakland Center
Fri 04:21:17 AM 39.3928 -123.3108 279° West 454 522 41,000  Level Oakland Center
Fri 04:22:17 AM 39.4889 -123.4442 313° West 458 527 41,000  Level Oakland Center
Fri 04:23:17 AM 39.5417 -123.5869 296° West 454 522 41,000  Level Oakland Center
Fri 04:24:17 AM 39.5650 -123.7464 281° West 452 520 41,000 -50 Level Oakland Center
Fri 04:25:17 AM 39.5517 -123.9017 264° West 449 517 40,900  Descending Oakland Center
Fri 04:26:18 AM 39.4447 -123.9892 212° Southwest 468 539 41,000 50 Climbing Oakland Center
Fri 04:27:18 AM 39.3283 -123.9458 164° South 505 581 41,000 450 Level Oakland Center
Fri 04:28:18 AM 39.2286 -123.7697 126° Southeast 537 618 41,900 650 Climbing Oakland Center
Fri 04:29:18 AM 39.1594 -123.6297 122° Southeast 535 616 42,300 450 Climbing Oakland Center
Fri 04:30:18 AM 39.0769 -123.4717 124° Southeast 533 613 42,800 300 Climbing Oakland Center
Fri 04:31:18 AM 38.9947 -123.3153 124° Southeast 530 610 42,900 50 Climbing Oakland Center
Fri 04:32:18 AM 38.9119 -123.1597 124° Southeast 529 609 42,900 50 Level Oakland Center
Fri 04:33:19 AM 38.8289 -123.0025 124° Southeast 530 610 43,000  Climbing Oakland Center
Fri 04:34:19 AM 38.7461 -122.8436 124° Southeast 534 615 42,900 -50 Descending Oakland Center
Fri 04:35:19 AM 38.6611 -122.6881 125° Southeast 534 615 42,900  Level Oakland Center
Fri 04:36:19 AM 38.5772 -122.5283 124° Southeast 536 617 42,900  Level Oakland Center
Fri 04:37:19 AM 38.4944 -122.3661 123° Southeast 541 623 42,900  Level Oakland Center
Fri 04:38:19 AM 38.4108 -122.2064 124° Southeast 540 621 42,900  Level Oakland Center
Fri 04:39:20 AM 38.3275 -122.0461 124° Southeast 540 621 42,900  Level Oakland Center
Fri 04:40:20 AM 38.2433 -121.8889 124° Southeast 537 618 42,900  Level Oakland Center
Fri 04:41:20 AM 38.1603 -121.7297 124° Southeast 537 618 42,900  Level Oakland Center
Fri 04:42:20 AM 38.0769 -121.5692 123° Southeast 542 624 42,900 50 Level Oakland Center
Fri 04:43:20 AM 37.9850 -121.3956 124° Southeast 539 620 43,000 50 Climbing Oakland Center
Fri 04:44:20 AM 37.9036 -121.2383 123° Southeast 538 619 43,000  Level Oakland Center
Fri 04:45:21 AM 37.8217 -121.0806 123° Southeast 540 621 43,000  Level Oakland Center
Fri 04:46:21 AM 37.7392 -120.9239 124° Southeast 537 618 43,000  Level Oakland Center
Fri 04:47:21 AM 37.6581 -120.7656 123° Southeast 538 619 43,000  Level Oakland Center
Fri 04:48:21 AM 37.5767 -120.6072 123° Southeast 539 620 43,000  Level Oakland Center
Fri 04:49:21 AM 37.4950 -120.4492 123° Southeast 539 620 43,000  Level Oakland Center
Fri 04:50:21 AM 37.4133 -120.2903 123° Southeast 540 621 43,000  Level Oakland Center
Fri 04:51:22 AM 37.3306 -120.1333 124° Southeast 541 623 43,000  Level Oakland Center
Fri 04:52:22 AM 37.2494 -119.9744 123° Southeast 542 624 43,000  Level Oakland Center
Fri 04:53:22 AM 37.1692 -119.8156 122° Southeast 540 621 43,000 -50 Level Oakland Center
Fri 04:54:22 AM 37.0892 -119.6575 122° Southeast 543 625 42,900  Descending Oakland Center
Fri 04:55:22 AM 37.0075 -119.4978 123° Southeast 546 628 43,000 50 Climbing Oakland Center
Fri 04:56:22 AM 36.9261 -119.3386 123° Southeast 545 627 43,000 -50 Level Oakland Center
Fri 04:57:22 AM 36.8458 -119.1778 122° Southeast 544 626 42,900 -50 Descending Oakland Center
Fri 04:58:23 AM 36.7658 -119.0186 122° Southeast 543 625 42,900  Level Oakland Center
Fri 04:59:23 AM 36.6853 -118.8597 122° Southeast 542 624 42,900  Level Oakland Center
Fri 05:00:23 AM 36.6047 -118.7003 122° Southeast 543 625 42,900 65 Level Oakland Center
Fri 05:00:55 AM 36.5656 -118.6211 122° Southeast 543 625 43,000 65 Climbing Los Center
Fri 05:01:55 AM 36.4856 -118.4617 122° Southeast 543 625 43,000  Level Los Center
Fri 05:02:55 AM 36.4058 -118.3047 122° Southeast 540 621 43,000 -50 Level Los Center
Fri 05:03:55 AM 36.3253 -118.1458 122° Southeast 543 625 42,900  Descending Los Center
Fri 05:04:56 AM 36.2467 -117.9867 121° Southeast 543 625 43,000 50 Climbing Los Center
Fri 05:05:56 AM 36.1675 -117.8294 122° Southeast 539 620 43,000  Level Los Center
Fri 05:06:56 AM 36.0872 -117.6686 122° Southeast 544 626 43,000  Level Los Center
Fri 05:07:56 AM 36.0072 -117.5089 122° Southeast 545 627 43,000  Level Los Center
Fri 05:08:57 AM 35.9272 -117.3508 122° Southeast 544 626 43,000  Level Los Center
Fri 05:09:57 AM 35.8467 -117.1942 122° Southeast 542 624 43,000  Level Los Center
Fri 05:10:57 AM 35.7658 -117.0372 122° Southeast 541 623 43,000  Level Los Center
Fri 05:11:57 AM 35.6864 -116.8811 122° Southeast 538 619 43,000  Level Los Center
Fri 05:12:57 AM 35.6058 -116.7250 122° Southeast 536 617 43,000  Level Los Center
Fri 05:13:58 AM 35.5250 -116.5664 122° Southeast 542 624 43,000  Level Los Center
Fri 05:14:58 AM 35.4436 -116.4114 123° Southeast 541 623 43,000  Level Los Center
Fri 05:16:16 AM 35.3342 -116.1928 121° Southeast 539 620 43,000  Level Los Center
Fri 05:17:17 AM 35.2561 -116.0336 121° Southeast 545 627 43,000  Level Los Center
Fri 05:18:17 AM 35.1811 -115.8764 120° Southeast 538 619 43,000  Level Los Center
Fri 05:19:17 AM 35.1047 -115.7183 121° Southeast 538 619 43,000  Level Los Center
Fri 05:20:17 AM 35.0264 -115.5592 121° Southeast 544 626 43,000  Level Los Center
Fri 05:21:17 AM 34.9483 -115.4006 121° Southeast 545 627 43,000  Level Los Center
Fri 05:22:18 AM 34.8786 -115.2569 121° Southeast 540 621 43,000  Level Los Center
Fri 05:23:18 AM 34.8000 -115.1014 122° Southeast 541 623 43,000  Level Los Center
Fri 05:24:18 AM 34.7156 -114.9522 125° Southeast 538 619 43,000 -50 Level Los Center
Fri 05:25:18 AM 34.6211 -114.7839 124° Southeast 535 616 42,900  Descending Los Center
Fri 05:26:18 AM 34.5353 -114.6358 125° Southeast 537 618 43,000  Climbing Los Center
Fri 05:27:18 AM 34.4517 -114.4850 124° Southeast 538 619 42,900 -50 Descending Los Center
Fri 05:28:19 AM 34.3675 -114.3367 124° Southeast 535 616 42,900 64 Level Los Center
Fri 05:28:52 AM 34.3281 -114.2667 124° Southeast 537 618 43,000 65 Climbing Albuquerque Center
Fri 05:29:52 AM 34.2458 -114.1161 123° Southeast 537 618 43,000  Level Albuquerque Center
Fri 05:30:52 AM 34.1625 -113.9692 124° Southeast 532 612 43,000  Level Albuquerque Center
Fri 05:31:53 AM 34.0844 -113.8286 124° Southeast 532 612 43,000  Level Albuquerque Center
Fri 05:32:53 AM 34.0044 -113.6836 124° Southeast 524 603 43,000  Level Albuquerque Center
Fri 05:33:53 AM 33.9236 -113.5367 124° Southeast 525 604 43,000  Level Albuquerque Center
Fri 05:34:53 AM 33.8444 -113.3906 123° Southeast 524 603 43,000  Level Albuquerque Center
Fri 05:35:54 AM 33.7631 -113.2467 124° Southeast 524 603 43,000  Level Albuquerque Center
Fri 05:36:54 AM 33.6825 -113.1017 124° Southeast 522 601 43,000 -50 Level Albuquerque Center
Fri 05:37:54 AM 33.5894 -112.9339 124° Southeast 524 603 42,900 -50 Descending Albuquerque Center
Fri 05:38:55 AM 33.5092 -112.7864 123° Southeast 526 605 42,900  Level Albuquerque Center
Fri 05:39:55 AM 33.4319 -112.6361 122° Southeast 527 606 42,900 50 Level Albuquerque Center
Fri 05:40:55 AM 33.3533 -112.4856 122° Southeast 527 606 43,000 50 Climbing Albuquerque Center
Fri 05:41:56 AM 33.2758 -112.3378 122° Southeast 528 608 43,000  Level Albuquerque Center
Fri 05:42:56 AM 33.1997 -112.1869 121° Southeast 532 612 43,000  Level Albuquerque Center
Fri 05:43:56 AM 33.1211 -112.0386 122° Southeast 533 613 43,000  Level Albuquerque Center
Fri 05:44:57 AM 33.0447 -111.8883 121° Southeast 532 612 43,000  Level Albuquerque Center
Fri 05:45:57 AM 32.9386 -111.7825 140° Southeast 508 585 43,000  Level Albuquerque Center
Fri 05:46:57 AM 32.8114 -111.8019 187° South 465 535 43,000  Level Albuquerque Center
Fri 05:47:58 AM 32.7353 -111.9133 231° Southwest 435 501 43,000  Level Albuquerque Center
Fri 05:48:58 AM 32.7186 -112.0544 262° West 428 493 43,000  Level Albuquerque Center
Fri 05:49:58 AM 32.7583 -112.1878 290° West 427 491 43,000 -50 Level Albuquerque Center
Fri 05:50:59 AM 32.8372 -112.3011 310° West 435 501 42,900  Descending Albuquerque Center
Fri 05:51:59 AM 32.9222 -112.4036 315° West 439 505 43,000 50 Climbing Albuquerque Center
Fri 05:52:59 AM 33.0097 -112.5075 315° West 445 512 43,000  Level Albuquerque Center
Fri 05:53:59 AM 33.0969 -112.6097 316° Northwest 445 512 43,000 -50 Level Albuquerque Center
Fri 05:55:00 AM 33.1842 -112.7106 316° Northwest 442 509 42,900 -50 Descending Albuquerque Center
Fri 05:56:00 AM 33.2717 -112.8131 316° Northwest 441 507 42,900  Level Albuquerque Center
Fri 05:57:00 AM 33.3581 -112.9147 316° Northwest 440 506 42,900  Level Albuquerque Center
Fri 05:58:01 AM 33.4447 -113.0172 315° West 439 505 42,900  Level Albuquerque Center
Fri 05:59:01 AM 33.5317 -113.1186 316° Northwest 439 505 42,900  Level Albuquerque Center
Fri 06:00:01 AM 33.6183 -113.2217 315° West 439 505 42,900 50 Level Albuquerque Center
Fri 06:01:02 AM 33.7117 -113.3286 316° Northwest 441 507 43,000 50 Climbing Albuquerque Center
Fri 06:02:02 AM 33.7986 -113.4294 316° Northwest 437 503 43,000  Level Albuquerque Center
Fri 06:03:02 AM 33.8864 -113.5311 316° Northwest 437 503 43,000  Level Albuquerque Center
Fri 06:04:02 AM 33.9728 -113.6331 316° Northwest 436 502 43,000  Level Albuquerque Center
Fri 06:05:03 AM 34.0603 -113.7328 317° Northwest 434 499 43,000  Level Albuquerque Center
Fri 06:06:03 AM 34.1522 -113.8431 315° West 429 494 43,000  Level Albuquerque Center
Fri 06:07:03 AM 34.2386 -113.9431 316° Northwest 428 493 43,000  Level Albuquerque Center
Fri 06:08:04 AM 34.3247 -114.0450 316° Northwest 431 496 43,000  Level Albuquerque Center
Fri 06:09:04 AM 34.4119 -114.1436 317° Northwest 431 496 43,000 -56 Level Albuquerque Center
Fri 06:09:51 AM 34.4711 -114.2106 317° Northwest 424 488 42,900 -56 Descending Los Center
Fri 06:10:51 AM 34.5572 -114.3108 316° Northwest 429 494 42,900 50 Level Los Center
Fri 06:11:51 AM 34.6533 -114.4244 316° Northwest 426 490 43,000 50 Climbing Los Center
Fri 06:12:51 AM 34.7397 -114.5239 317° Northwest 427 491 43,000  Level Los Center
Fri 06:13:52 AM 34.8267 -114.6228 317° Northwest 427 491 43,000  Level Los Center
Fri 06:14:52 AM 34.9144 -114.7250 316° Northwest 433 498 43,000  Level Los Center
Fri 06:15:52 AM 35.0003 -114.8283 315° West 434 499 43,000  Level Los Center
Fri 06:16:52 AM 35.0875 -114.9294 317° Northwest 431 496 43,000  Level Los Center
Fri 06:17:53 AM 35.1764 -115.0331 316° Northwest 438 504 43,000  Level Los Center
Fri 06:18:53 AM 35.2661 -115.1347 317° Northwest 439 505 43,000  Level Los Center
Fri 06:19:53 AM 35.3556 -115.2375 317° Northwest 439 505 43,000  Level Los Center
Fri 06:20:53 AM 35.4431 -115.3369 317° Northwest 432 497 43,000  Level Los Center
Fri 06:21:53 AM 35.5319 -115.4442 316° Northwest 440 506 43,000  Level Los Center
Fri 06:22:54 AM 35.6203 -115.5469 317° Northwest 438 504 43,000  Level Los Center
Fri 06:23:54 AM 35.7108 -115.6458 318° Northwest 435 501 43,000  Level Los Center
Fri 06:24:54 AM 35.7983 -115.7469 317° Northwest 430 495 43,000  Level Los Center
Fri 06:25:54 AM 35.8897 -115.8467 319° Northwest 434 499 43,000  Level Los Center
Fri 06:26:55 AM 35.9750 -115.9381 319° Northwest 430 495 43,000  Level Los Center
Fri 06:27:55 AM 36.0600 -116.0267 320° Northwest 429 494 43,000  Level Los Center
Fri 06:28:55 AM 36.1511 -116.1228 320° Northwest 429 494 43,000  Level Los Center
Fri 06:29:55 AM 36.2456 -116.2239 319° Northwest 428 493 43,000  Level Los Center
Fri 06:30:55 AM 36.3369 -116.3189 320° Northwest 430 495 43,000  Level Los Center
Fri 06:31:56 AM 36.4286 -116.4156 320° Northwest 433 498 43,000  Level Los Center
Fri 06:32:56 AM 36.5311 -116.5269 319° Northwest 437 503 43,000  Level Los Center
Fri 06:33:56 AM 36.6100 -116.6092 320° Northwest 439 505 43,000  Level Los Center
Fri 06:34:56 AM 36.7044 -116.7067 320° Northwest 440 506 43,000  Level Los Center
Fri 06:35:57 AM 36.7983 -116.8058 320° Northwest 441 507 43,000  Level Los Center
Fri 06:36:57 AM 36.8925 -116.9072 319° Northwest 445 512 43,000  Level Los Center
Fri 06:37:57 AM 36.9856 -117.0072 319° Northwest 441 507 43,000  Level Los Center
Fri 06:38:57 AM 37.0803 -117.1081 320° Northwest 444 511 43,000  Level Los Center
Fri 06:39:57 AM 37.1736 -117.2100 319° Northwest 445 512 43,000  Level Los Center
Fri 06:40:58 AM 37.2683 -117.3114 320° Northwest 445 512 43,000  Level Los Center
Fri 06:41:58 AM 37.3636 -117.4125 320° Northwest 446 513 43,000  Level Los Center
Fri 06:42:58 AM 37.4589 -117.5147 320° Northwest 448 516 43,000  Level Los Center
Fri 06:43:58 AM 37.5572 -117.6167 321° Northwest 453 521 43,000  Level Los Center
Fri 06:44:59 AM 37.6544 -117.7197 320° Northwest 454 522 43,000  Level Los Center
Fri 06:45:59 AM 37.7511 -117.8233 320° Northwest 453 521 43,000  Level Los Center
Fri 06:46:59 AM 37.8475 -117.9258 320° Northwest 450 518 43,000  Level Los Center
Fri 06:47:59 AM 37.9450 -118.0294 320° Northwest 453 521 43,000  Level Los Center
Fri 06:48:59 AM 38.0431 -118.1331 320° Northwest 455 524 43,000  Level Los Center
Fri 06:50:00 AM 38.1408 -118.2353 321° Northwest 454 522 43,000  Level Los Center
Fri 06:51:00 AM 38.2392 -118.3369 321° Northwest 453 521 43,000  Level Los Center
Fri 06:52:00 AM 38.3381 -118.4389 321° Northwest 454 522 43,000  Level Los Center
Fri 06:53:00 AM 38.4350 -118.5419 320° Northwest 453 521 43,000  Level Los Center
Fri 06:54:01 AM 38.5314 -118.6461 320° Northwest 453 521 43,000  Level Los Center
Fri 06:55:01 AM 38.6278 -118.7494 320° Northwest 452 520 43,000  Level Los Center
Fri 06:56:01 AM 38.7242 -118.8542 320° Northwest 453 521 43,000  Level Los Center
Fri 06:57:01 AM 38.8203 -118.9589 320° Northwest 453 521 43,000  Level Los Center
Fri 06:58:02 AM 38.9133 -119.0614 319° Northwest 452 520 43,000 -50 Level Los Center
Fri 06:59:02 AM 39.0086 -119.1667 319° Northwest 453 521 42,900  Descending Los Center
Fri 07:00:02 AM 39.1053 -119.2731 320° Northwest 455 524 43,000  Climbing Los Center
Fri 07:01:03 AM 39.2022 -119.3789 320° Northwest 456 525 42,900 -50 Descending Los Center
Fri 07:02:03 AM 39.2989 -119.4847 320° Northwest 457 526 42,900  Level Los Center
Fri 07:03:03 AM 39.3953 -119.5889 320° Northwest 456 525 42,900  Level Los Center
Fri 07:04:03 AM 39.5119 -119.7147 320° Northwest 456 525 42,900 45 Level Los Center
Fri 07:05:15 AM 39.6211 -119.8306 321° Northwest 458 527 43,000 45 Climbing Oakland Center
Fri 07:06:15 AM 39.7194 -119.9364 320° Northwest 459 528 43,000  Level Oakland Center
Fri 07:07:16 AM 39.8183 -120.0436 320° Northwest 461 531 43,000  Level Oakland Center
Fri 07:08:16 AM 39.9214 -120.1553 320° Northwest 459 528 43,000  Level Oakland Center
Fri 07:09:16 AM 40.0200 -120.2619 320° Northwest 462 532 43,000  Level Oakland Center
Fri 07:10:16 AM 40.1133 -120.3647 320° Northwest 461 531 43,000  Level Oakland Center
Fri 07:11:16 AM 40.2186 -120.4769 321° Northwest 457 526 43,000  Level Oakland Center
Fri 07:12:16 AM 40.3167 -120.5808 321° Northwest 455 524 43,000  Level Oakland Center
Fri 07:13:17 AM 40.4286 -120.6581 332° Northwest 464 534 43,000  Level Oakland Center
Fri 07:14:17 AM 40.5083 -120.7817 310° West 467 537 43,000  Level Oakland Center
Fri 07:15:17 AM 40.4842 -120.9353 258° West 446 513 43,000  Level Oakland Center
Fri 07:16:17 AM 40.3697 -121.0061 205° Southwest 466 536 43,000  Level Oakland Center
Fri 07:17:17 AM 40.2353 -120.9661 167° South 489 563 43,000  Level Oakland Center
Fri 07:18:18 AM 40.1000 -120.9261 167° South 495 570 43,000  Level Oakland Center
Fri 07:19:18 AM 39.9675 -120.8831 166° South 498 573 43,000  Level Oakland Center
Fri 07:20:18 AM 39.8342 -120.8278 162° South 501 577 43,000  Level Oakland Center
Fri 07:21:18 AM 39.7000 -120.7753 163° South 501 577 43,000  Level Oakland Center
Fri 07:22:18 AM 39.5667 -120.7239 163° South 498 573 43,000  Level Oakland Center
Fri 07:23:19 AM 39.4319 -120.6708 163° South 502 578 43,000  Level Oakland Center
Fri 07:24:19 AM 39.2972 -120.6186 163° South 503 579 43,000  Level Oakland Center
Fri 07:25:19 AM 39.1639 -120.5658 163° South 498 573 43,000  Level Oakland Center
Fri 07:26:19 AM 39.0281 -120.5139 163° South 502 578 43,000  Level Oakland Center
Fri 07:27:19 AM 38.8919 -120.4592 163° South 506 582 43,000  Level Oakland Center
Fri 07:28:20 AM 38.7544 -120.4039 163° South 512 589 43,000  Level Oakland Center
Fri 07:29:20 AM 38.6175 -120.3478 162° South 513 590 43,000  Level Oakland Center
Fri 07:30:20 AM 38.4817 -120.2919 162° South 510 587 43,000  Level Oakland Center
Fri 07:31:20 AM 38.3456 -120.2339 162° South 512 589 43,000  Level Oakland Center
Fri 07:32:20 AM 38.2089 -120.1764 162° South 514 592 43,000  Level Oakland Center
Fri 07:33:21 AM 38.0731 -120.1181 161° South 513 590 43,000  Level Oakland Center
Fri 07:34:21 AM 37.9386 -120.0622 162° South 508 585 43,000  Level Oakland Center
Fri 07:35:21 AM 37.8042 -120.0075 162° South 506 582 43,000  Level Oakland Center
Fri 07:36:21 AM 37.6689 -119.9517 162° South 509 586 43,000  Level Oakland Center
Fri 07:37:21 AM 37.5350 -119.8953 162° South 507 583 43,000  Level Oakland Center
Fri 07:38:22 AM 37.4003 -119.8389 162° South 508 585 43,000 -50 Level Oakland Center
Fri 07:39:22 AM 37.2786 -119.7889 162° South 507 583 42,900 -50 Descending Oakland Center
Fri 07:40:22 AM 37.1458 -119.7331 161° South 504 580 42,900  Level Oakland Center
Fri 07:41:22 AM 37.0131 -119.6775 162° South 503 579 42,900  Level Oakland Center
Fri 07:42:22 AM 36.8800 -119.6256 163° South 501 577 42,900 50 Level Oakland Center
Fri 07:43:22 AM 36.7478 -119.5728 162° South 498 573 43,000 50 Climbing Oakland Center
Fri 07:44:23 AM 36.6156 -119.5203 162° South 498 573 43,000  Level Oakland Center
Fri 07:45:23 AM 36.4836 -119.4664 162° South 499 574 43,000 -50 Level Oakland Center
Fri 07:46:23 AM 36.3514 -119.4128 162° South 500 575 42,900  Descending Oakland Center
Fri 07:47:23 AM 36.2194 -119.3611 162° South 498 573 43,000  Climbing Oakland Center
Fri 07:48:23 AM 36.0889 -119.3053 161° South 495 570 42,900  Descending Oakland Center
Fri 07:49:24 AM 35.9950 -119.1706 131° Southeast 518 596 43,000 -50 Climbing Oakland Center
Fri 07:50:24 AM 35.9164 -119.0172 122° Southeast 524 603 42,800 -500 Descending Oakland Center
Fri 07:51:24 AM 35.8378 -118.8642 122° Southeast 528 608 42,000 -800 Descending Oakland Center
Fri 07:52:24 AM 35.7564 -118.7111 123° Southeast 531 611 41,200 -750 Descending Oakland Center
Fri 07:53:24 AM 35.6728 -118.5617 125° Southeast 532 612 40,500 -1,438 Descending Oakland Center
Fri 07:54:25 AM 35.5967 -118.4203 123° Southeast 505 581 38,300 -2,678 Descending Oakland Center
Fri 07:55:25 AM 35.5244 -118.2789 122° Southeast 492 566 35,100 -3,300 Descending Oakland Center
Fri 07:56:25 AM 35.4481 -118.1331 123° Southeast 504 580 31,700 -2,900 Descending Oakland Center
Fri 07:57:25 AM 35.3719 -117.9911 123° Southeast 499 574 29,300 -1,900 Descending Oakland Center
Fri 07:58:25 AM 35.2886 -117.8397 124° Southeast 485 558 27,900 -1,852 Descending Oakland Center
Fri 07:59:54 AM 35.2078 -117.6583 119° Southeast 471 542 24,700 -2,054 Descending Los Center
Fri 08:00:54 AM 35.2053 -117.4850 91° East 488 562 22,800 -1,650 Descending Los Center
Fri 08:01:54 AM 35.2036 -117.3244 91° East 478 550 21,400 -1,488 Descending Los Center
Fri 08:02:55 AM 35.2014 -117.1806 91° East 445 512 19,800 -1,537 Descending Los Center
Fri 08:03:55 AM 35.1322 -117.0833 131° Southeast 412 474 18,300 -1,450 Descending Los Center
Fri 08:04:55 AM 35.0475 -117.1144 197° South 370 426 16,900 -1,200 Descending Los Center
Fri 08:05:55 AM 34.9992 -117.2086 238° Southwest 342 394 15,900 -744 Descending Los Center
Fri 08:06:56 AM 34.9436 -117.3017 234° Southwest 335 386 15,400 -843 Descending Los Center
Fri 08:07:56 AM 34.8847 -117.3992 234° Southwest 346 398 14,200 -1,450 Descending Los Center
Fri 08:08:56 AM 34.8292 -117.4908 234° Southwest 334 384 12,500 -1,600 Descending Los Center
Fri 08:09:56 AM 34.7767 -117.5794 234° Southwest 325 374 11,000 -1,240 Descending Los Center
Fri 08:10:57 AM 34.7286 -117.6572 233° Southwest 299 344 10,000 -1,388 Descending Los Center
Fri 08:11:57 AM 34.6808 -117.7189 227° Southwest 279 321 8,200 -1,400 Descending Los Center
Fri 08:12:57 AM 34.6342 -117.6769 144° Southeast 254 292 7,200 -900 Descending Los Center
Fri 08:13:57 AM 34.6725 -117.6769 360° North 225 259 6,400 -947 Descending Los Center
Fri 08:15:10 AM 34.6464 -117.7358 242° Southwest 183 211 5,100 -586 Descending Los Center
Fri 08:16:10 AM 34.6472 -117.7908 271° West 170 196 5,100 -50 Level Los Center
Fri 08:17:10 AM 34.6442 -117.8453 266° West 165 190 5,000 -50 Descending Los Center
Fri 08:18:11 AM 34.6408 -117.8958 265° West 158 182 5,000 -149 Level Los Center
Fri 08:19:11 AM 34.6386 -117.9419 267° West 149 171 4,700 -500 Descending Los Center
Fri 08:20:11 AM 34.6358 -117.9872 266° West 142 163 4,000 -700 Descending Los Center
Fri 08:21:11 AM 34.6339 -118.0303 267° West 135 155 3,300 -694 Descending Los Center
Fri 08:22:12 AM 34.6319 -118.0733 267° West 130 150 2,600 -397 Descending Los Center
Fri 08:23:12 AM 34.6328 -118.1053 272° West 164 189 2,500 -100 Descending Los Center

Login

Don't have an account? Register now (free) for customized features, flight alerts, and more!